Time;durP1;ratioP1;P1;durP2;ratioP2;P2;SDS_P1;SDS_P2;PMS_P1;PMS_P2;Temp;Humidity;BMP_temperature;BMP_pressure;BME280_temperature;BME280_humidity;BME280_pressure;Samples;Min_cycle;Max_cycle;Signal;HPM_P1;HPM_P2
2023/06/08 00:00:27;;;;;;;15.85;9.65;;;12.40;99.90;;;;;;5081950;28;20043;-70
2023/06/08 00:03:04;;;;;;;19.88;11.25;;;12.40;99.90;;;;;;5026559;28;20083;-70
2023/06/08 00:05:31;;;;;;;20.95;10.35;;;12.30;99.90;;;;;;5061413;28;20044;-70
2023/06/08 00:07:57;;;;;;;16.83;10.15;;;12.30;99.90;;;;;;5078333;28;20048;-73
2023/06/08 00:10:23;;;;;;;17.30;10.88;;;12.30;99.90;;;;;;5041773;28;20420;-73
2023/06/08 00:12:49;;;;;;;17.58;9.48;;;12.30;99.90;;;;;;5044472;28;20048;-74
2023/06/08 00:15:17;;;;;;;19.00;9.75;;;12.30;99.90;;;;;;5026731;28;20037;-73
2023/06/08 00:17:46;;;;;;;15.95;9.55;;;12.30;99.90;;;;;;5027504;28;20075;-73
2023/06/08 00:20:13;;;;;;;12.00;9.27;;;12.30;99.90;;;;;;5044285;28;20109;-73
2023/06/08 00:22:39;;;;;;;12.35;9.02;;;12.30;99.90;;;;;;5013928;28;20565;-73
2023/06/08 00:25:05;;;;;;;16.35;9.05;;;12.30;99.90;;;;;;5016338;28;20641;-73
2023/06/08 00:27:31;;;;;;;13.57;8.85;;;12.30;99.90;;;;;;5040189;28;20045;-73
2023/06/08 00:29:57;;;;;;;15.88;9.43;;;12.30;99.90;;;;;;5043155;28;20126;-73
2023/06/08 00:32:23;;;;;;;15.05;8.70;;;12.30;99.90;;;;;;5026637;28;20036;-73
2023/06/08 00:34:48;;;;;;;15.82;9.40;;;12.30;99.90;;;;;;5024682;28;20164;-72
2023/06/08 00:37:14;;;;;;;15.95;9.10;;;12.30;99.90;;;;;;5020699;28;21079;-72
2023/06/08 00:39:40;;;;;;;15.88;9.93;;;12.30;99.90;;;;;;5029217;28;20139;-73
2023/06/08 00:42:06;;;;;;;17.95;9.82;;;12.30;99.90;;;;;;5023871;28;20101;-73
2023/06/08 00:44:31;;;;;;;15.82;9.88;;;12.30;99.90;;;;;;5028637;28;20123;-73
2023/06/08 00:46:57;;;;;;;14.05;8.95;;;12.30;99.90;;;;;;5028582;28;20170;-73
2023/06/08 00:49:23;;;;;;;21.20;11.20;;;12.20;99.90;;;;;;5047949;28;20060;-73
2023/06/08 00:51:50;;;;;;;16.63;9.68;;;12.20;99.90;;;;;;5044708;28;20040;-72
2023/06/08 00:54:19;;;;;;;15.20;9.55;;;12.20;99.90;;;;;;5030728;28;20084;-73
2023/06/08 00:56:48;;;;;;;18.80;11.00;;;12.20;99.90;;;;;;5026476;28;20051;-73
2023/06/08 00:59:14;;;;;;;16.75;9.90;;;12.20;99.90;;;;;;5042630;28;20767;-72
2023/06/08 01:01:40;;;;;;;16.08;10.32;;;12.30;99.90;;;;;;5046132;28;20181;-73
2023/06/08 01:04:06;;;;;;;15.27;10.13;;;12.20;99.90;;;;;;5041152;28;20148;-73
2023/06/08 01:06:38;;;;;;;14.75;9.75;;;12.20;99.90;;;;;;5047072;28;20571;-73
2023/06/08 01:09:29;;;;;;;18.83;11.48;;;12.20;99.90;;;;;;5029028;28;20485;-73
2023/06/08 01:12:13;;;;;;;16.23;10.50;;;12.20;99.90;;;;;;5048947;28;20106;-73
2023/06/08 01:15:00;;;;;;;14.25;9.95;;;12.20;99.90;;;;;;5070124;28;20575;-73
2023/06/08 01:17:36;;;;;;;16.75;11.32;;;12.20;99.90;;;;;;5059759;28;20139;-73
2023/06/08 01:20:24;;;;;;;18.17;10.75;;;12.10;99.90;;;;;;5064997;28;20123;-72
2023/06/08 01:23:16;;;;;;;18.23;10.52;;;12.10;99.90;;;;;;5047937;28;20070;-73
2023/06/08 01:25:43;;;;;;;15.90;10.73;;;12.10;99.90;;;;;;5064947;28;20496;-72
2023/06/08 01:28:15;;;;;;;14.95;10.40;;;12.10;99.90;;;;;;5063145;28;20514;-73
2023/06/08 01:30:46;;;;;;;20.08;12.02;;;12.10;99.90;;;;;;5063979;28;20081;-73
2023/06/08 01:33:20;;;;;;;16.58;10.93;;;12.00;99.90;;;;;;5062527;28;20040;-72
2023/06/08 01:35:52;;;;;;;15.45;11.10;;;12.10;99.90;;;;;;5064532;28;20035;-72
2023/06/08 01:38:28;;;;;;;16.13;11.75;;;12.00;99.90;;;;;;5043960;28;20066;-73
2023/06/08 01:40:56;;;;;;;18.30;11.95;;;12.10;99.90;;;;;;5057999;28;20048;-73
2023/06/08 01:43:25;;;;;;;13.07;10.20;;;12.10;99.90;;;;;;5050808;28;20078;-73
2023/06/08 01:45:57;;;;;;;17.95;11.52;;;12.10;99.90;;;;;;5050952;28;20083;-72
2023/06/08 01:48:24;;;;;;;17.85;11.45;;;12.10;99.90;;;;;;5060625;28;20076;-72
2023/06/08 01:50:51;;;;;;;17.17;12.27;;;12.10;99.90;;;;;;5053403;28;20112;-73
2023/06/08 01:53:17;;;;;;;19.67;12.18;;;12.10;99.90;;;;;;5050493;28;20087;-73
2023/06/08 01:55:47;;;;;;;19.15;12.30;;;12.10;99.90;;;;;;5064740;28;20048;-73
2023/06/08 01:58:13;;;;;;;21.83;12.63;;;12.10;99.90;;;;;;5033147;28;20052;-71
2023/06/08 02:00:39;;;;;;;17.77;12.50;;;12.10;99.90;;;;;;5017637;28;20043;-72
2023/06/08 02:03:05;;;;;;;17.50;12.23;;;12.00;99.90;;;;;;5047468;28;20047;-72
2023/06/08 02:05:31;;;;;;;21.27;13.55;;;12.10;99.90;;;;;;5061386;28;20523;-73
2023/06/08 02:07:56;;;;;;;20.08;13.25;;;12.10;99.90;;;;;;5053077;28;20090;-71
2023/06/08 02:10:23;;;;;;;20.20;13.98;;;12.00;99.90;;;;;;5044702;28;20079;-72
2023/06/08 02:12:48;;;;;;;20.75;13.90;;;12.00;99.90;;;;;;5068301;28;20085;-72
2023/06/08 02:15:15;;;;;;;18.98;13.80;;;12.00;99.90;;;;;;5065148;28;20449;-72
2023/06/08 02:17:42;;;;;;;22.48;13.80;;;12.00;99.90;;;;;;5068035;28;20063;-72
2023/06/08 02:20:09;;;;;;;20.33;14.02;;;12.10;99.90;;;;;;5064674;28;20080;-71
2023/06/08 02:22:39;;;;;;;23.95;15.52;;;12.10;99.90;;;;;;5053015;28;20066;-72
2023/06/08 02:25:07;;;;;;;23.58;16.75;;;12.00;99.90;;;;;;5064557;28;20175;-72
2023/06/08 02:27:36;;;;;;;20.65;15.25;;;12.00;99.90;;;;;;5052211;28;20646;-71
2023/06/08 02:30:05;;;;;;;25.58;16.67;;;12.00;99.90;;;;;;5048773;28;20090;-69
2023/06/08 02:32:34;;;;;;;24.52;16.08;;;12.10;99.90;;;;;;5050434;28;20203;-69
2023/06/08 02:35:04;;;;;;;24.35;17.55;;;12.00;99.90;;;;;;5033619;28;20040;-69
2023/06/08 02:37:30;;;;;;;;;;;12.10;99.90;;;;;;5066177;28;21997;-69
2023/06/08 02:39:57;;;;;;;25.85;16.77;;;12.00;99.90;;;;;;5063435;28;19927;-69
2023/06/08 02:42:22;;;;;;;24.95;16.83;;;12.00;99.90;;;;;;5076974;28;20213;-69
2023/06/08 02:44:48;;;;;;;24.55;16.40;;;12.00;99.90;;;;;;5031098;28;20067;-69
2023/06/08 02:47:15;;;;;;;21.63;15.82;;;12.00;99.90;;;;;;5044809;28;20048;-69
2023/06/08 02:49:41;;;;;;;23.42;15.05;;;11.90;99.90;;;;;;5041108;28;20037;-72
2023/06/08 02:52:07;;;;;;;22.17;15.40;;;11.90;99.90;;;;;;5048360;28;20044;-69
2023/06/08 02:54:33;;;;;;;23.17;15.68;;;11.90;99.90;;;;;;5061241;28;20048;-69
2023/06/08 02:56:59;;;;;;;21.98;14.73;;;11.90;99.90;;;;;;5048463;28;20500;-69
2023/06/08 02:59:27;;;;;;;20.83;14.88;;;11.90;99.90;;;;;;5064048;28;20052;-69
2023/06/08 03:01:53;;;;;;;21.92;16.23;;;11.90;99.90;;;;;;5052106;28;20040;-69
2023/06/08 03:04:27;;;;;;;20.25;14.93;;;11.90;99.90;;;;;;5044383;28;20101;-69
2023/06/08 03:06:53;;;;;;;21.05;14.32;;;11.90;99.90;;;;;;5047737;28;20097;-69
2023/06/08 03:09:24;;;;;;;19.65;15.10;;;11.80;99.90;;;;;;5047970;28;20496;-69
2023/06/08 03:11:51;;;;;;;25.65;15.68;;;11.80;99.90;;;;;;5048102;28;20052;-70
2023/06/08 03:14:18;;;;;;;20.85;16.25;;;11.80;99.90;;;;;;5026215;28;20044;-72
2023/06/08 03:16:45;;;;;;;23.35;15.75;;;11.80;99.90;;;;;;5028211;28;20567;-72
2023/06/08 03:19:12;;;;;;;20.80;15.98;;;11.70;99.90;;;;;;5046030;28;20053;-73
2023/06/08 03:21:41;;;;;;;24.08;16.60;;;11.70;99.90;;;;;;5024843;28;20119;-72
2023/06/08 03:24:08;;;;;;;21.45;16.42;;;11.70;99.90;;;;;;5043030;28;20119;-72
2023/06/08 03:26:33;;;;;;;22.58;17.05;;;11.70;99.90;;;;;;5040833;28;20056;-73
2023/06/08 03:29:00;;;;;;;26.65;16.67;;;11.70;99.90;;;;;;5037541;28;20400;-72
2023/06/08 03:31:26;;;;;;;24.45;17.58;;;11.70;99.90;;;;;;5048584;28;20045;-72
2023/06/08 03:33:52;;;;;;;21.80;16.48;;;11.60;99.90;;;;;;5037975;28;20047;-72
2023/06/08 03:36:18;;;;;;;25.60;16.50;;;11.70;99.90;;;;;;5023952;28;20127;-69
2023/06/08 03:38:44;;;;;;;20.77;17.17;;;11.70;99.90;;;;;;5020710;28;20044;-69
2023/06/08 03:41:13;;;;;;;24.77;17.95;;;11.70;99.90;;;;;;5041798;28;20040;-69
2023/06/08 03:43:38;;;;;;;23.52;16.67;;;11.70;99.90;;;;;;5038354;28;20848;-69
2023/06/08 03:46:05;;;;;;;23.98;17.83;;;11.60;99.90;;;;;;4990162;28;20055;-70
2023/06/08 03:48:31;;;;;;;25.90;17.52;;;11.60;99.90;;;;;;5033747;28;20051;-72
2023/06/08 03:50:57;;;;;;;22.30;16.85;;;11.60;99.90;;;;;;5052472;28;20051;-72
2023/06/08 03:53:22;;;;;;;23.05;17.25;;;11.60;99.90;;;;;;5027635;28;20036;-72
2023/06/08 03:55:48;;;;;;;22.63;17.63;;;11.60;99.90;;;;;;5021717;28;20043;-72
2023/06/08 03:58:14;;;;;;;22.67;17.13;;;11.60;99.90;;;;;;5044002;28;20561;-72
2023/06/08 04:00:41;;;;;;;24.92;15.95;;;11.60;99.90;;;;;;5003748;28;20564;-72
2023/06/08 04:03:10;;;;;;;21.35;17.25;;;11.60;99.90;;;;;;5023363;28;20885;-72
2023/06/08 04:05:36;;;;;;;22.33;16.83;;;11.60;99.90;;;;;;5038357;28;20052;-72
2023/06/08 04:08:02;;;;;;;21.42;17.45;;;11.60;99.90;;;;;;5040017;28;20053;-72
2023/06/08 04:10:28;;;;;;;27.65;16.88;;;11.60;99.90;;;;;;5024131;28;20063;-73
2023/06/08 04:12:55;;;;;;;21.88;17.38;;;11.60;99.90;;;;;;5039378;28;20803;-70
2023/06/08 04:15:25;;;;;;;22.63;16.77;;;11.60;99.90;;;;;;5037691;28;20040;-70
2023/06/08 04:17:51;;;;;;;20.45;17.08;;;11.60;99.90;;;;;;5023264;28;20048;-70
2023/06/08 04:20:17;;;;;;;20.48;16.48;;;11.60;99.90;;;;;;5020349;28;20044;-70
2023/06/08 04:22:43;;;;;;;24.48;16.73;;;11.60;99.90;;;;;;4989841;28;20119;-70
2023/06/08 04:25:09;;;;;;;19.13;14.82;;;11.50;99.90;;;;;;5039581;28;20131;-70
2023/06/08 04:27:34;;;;;;;19.73;13.90;;;11.60;99.90;;;;;;5007186;28;20064;-69
2023/06/08 04:30:01;;;;;;;21.02;15.27;;;11.60;99.90;;;;;;5034155;28;20036;-70
2023/06/08 04:32:27;;;;;;;20.15;14.20;;;11.60;99.90;;;;;;5003892;28;20413;-70
2023/06/08 04:34:56;;;;;;;20.45;14.60;;;11.60;99.90;;;;;;5037289;28;20044;-70
2023/06/08 04:37:22;;;;;;;21.23;15.10;;;11.60;99.90;;;;;;5023829;28;20048;-70
2023/06/08 04:39:48;;;;;;;20.02;14.93;;;11.50;99.90;;;;;;5024911;28;20106;-70
2023/06/08 04:42:19;;;;;;;20.70;14.55;;;11.60;99.90;;;;;;5027784;28;20130;-70
2023/06/08 04:44:45;;;;;;;21.63;15.20;;;11.60;99.90;;;;;;5027068;28;20695;-70
2023/06/08 04:47:11;;;;;;;19.67;14.52;;;11.60;99.90;;;;;;5025833;28;20075;-71
2023/06/08 04:49:38;;;;;;;20.80;14.38;;;11.60;99.90;;;;;;5042613;28;20048;-70
2023/06/08 04:52:06;;;;;;;19.95;15.63;;;11.60;99.90;;;;;;5012741;28;20542;-70
2023/06/08 04:54:33;;;;;;;18.77;14.73;;;11.70;99.90;;;;;;5024468;28;20049;-69
2023/06/08 04:56:59;;;;;;;20.38;14.88;;;11.70;99.90;;;;;;5012037;28;20099;-70
2023/06/08 04:59:26;;;;;;;20.42;14.50;;;11.70;99.90;;;;;;5025992;28;20056;-70
2023/06/08 05:01:52;;;;;;;18.33;15.52;;;11.70;99.90;;;;;;5028942;28;20447;-70
2023/06/08 05:04:18;;;;;;;19.17;14.80;;;11.80;99.90;;;;;;5026970;28;20120;-70
2023/06/08 05:06:44;;;;;;;19.50;15.35;;;11.80;99.90;;;;;;5042225;28;20044;-70
2023/06/08 05:09:12;;;;;;;18.17;15.02;;;11.80;99.90;;;;;;5023028;28;20454;-70
2023/06/08 05:11:38;;;;;;;24.27;15.95;;;11.80;99.90;;;;;;5055681;28;20056;-69
2023/06/08 05:14:04;;;;;;;23.48;15.32;;;11.80;99.90;;;;;;5046063;28;20146;-69
2023/06/08 05:16:30;;;;;;;19.98;15.43;;;11.80;99.90;;;;;;5064094;28;20119;-69
2023/06/08 05:18:55;;;;;;;18.20;15.40;;;11.80;99.90;;;;;;5030723;28;20139;-69
2023/06/08 05:21:21;;;;;;;19.05;14.90;;;11.90;99.90;;;;;;5062708;28;20453;-69
2023/06/08 05:23:47;;;;;;;23.13;15.80;;;11.90;99.90;;;;;;5063711;28;20035;-70
2023/06/08 05:26:21;;;;;;;23.02;16.83;;;12.00;99.90;;;;;;5051205;28;20129;-70
2023/06/08 05:28:47;;;;;;;19.73;14.90;;;12.10;99.90;;;;;;5067226;28;20040;-69
2023/06/08 05:31:13;;;;;;;23.25;15.15;;;12.10;99.90;;;;;;5051393;28;20100;-70
2023/06/08 05:33:38;;;;;;;19.20;15.10;;;12.10;99.90;;;;;;5062450;28;20048;-70
2023/06/08 05:36:05;;;;;;;17.70;15.05;;;12.20;99.90;;;;;;5051032;28;20039;-70
2023/06/08 05:38:31;;;;;;;24.17;15.80;;;12.20;99.90;;;;;;5067177;28;20052;-69
2023/06/08 05:40:57;;;;;;;21.70;15.65;;;12.20;99.90;;;;;;5051502;28;20039;-70
2023/06/08 05:43:23;;;;;;;21.25;14.50;;;12.20;99.90;;;;;;5048716;28;20044;-69
2023/06/08 05:45:49;;;;;;;20.95;15.00;;;12.20;99.90;;;;;;5059030;28;20073;-70
2023/06/08 05:48:15;;;;;;;20.75;14.63;;;12.20;99.90;;;;;;5031638;28;20052;-70
2023/06/08 05:50:40;;;;;;;19.08;13.85;;;12.20;99.90;;;;;;5033189;28;20040;-70
2023/06/08 05:53:06;;;;;;;19.02;14.35;;;12.30;99.90;;;;;;5047462;28;20048;-69
2023/06/08 05:55:32;;;;;;;20.85;14.63;;;12.30;99.90;;;;;;5062696;28;20063;-70
2023/06/08 05:57:58;;;;;;;20.20;14.52;;;12.40;99.90;;;;;;5051963;28;20035;-70
2023/06/08 06:00:23;;;;;;;24.17;15.93;;;12.40;99.90;;;;;;5066149;28;20078;-70
2023/06/08 06:02:49;;;;;;;21.15;13.90;;;12.40;99.90;;;;;;5063794;28;20400;-69
2023/06/08 06:05:15;;;;;;;16.92;13.07;;;12.50;99.90;;;;;;5064409;28;20496;-70
2023/06/08 06:07:44;;;;;;;20.60;13.52;;;12.50;99.90;;;;;;5032319;28;20564;-71
2023/06/08 06:10:10;;;;;;;19.85;12.90;;;12.60;99.90;;;;;;5061870;28;20059;-70
2023/06/08 06:12:36;;;;;;;19.60;13.02;;;12.70;99.90;;;;;;5032413;28;20041;-70
2023/06/08 06:15:03;;;;;;;21.52;12.98;;;12.70;99.90;;;;;;5043456;28;20098;-70
2023/06/08 06:17:28;;;;;;;20.80;13.82;;;12.80;99.90;;;;;;5067721;28;20530;-71
2023/06/08 06:19:54;;;;;;;21.42;12.88;;;12.90;99.90;;;;;;5031010;28;20170;-71
2023/06/08 06:22:20;;;;;;;21.23;12.35;;;13.00;99.90;;;;;;5064138;28;20106;-71
2023/06/08 06:24:46;;;;;;;21.20;12.43;;;13.10;99.90;;;;;;5052678;28;20055;-71
2023/06/08 06:27:12;;;;;;;18.95;11.75;;;13.10;99.90;;;;;;5055221;28;20493;-71
2023/06/08 06:29:38;;;;;;;18.25;12.13;;;13.20;99.90;;;;;;5036023;28;20052;-70
2023/06/08 06:32:04;;;;;;;16.33;10.57;;;13.20;99.90;;;;;;5050914;28;20037;-70
2023/06/08 06:34:30;;;;;;;15.68;10.43;;;13.20;99.90;;;;;;5049363;28;20040;-70
2023/06/08 06:36:58;;;;;;;13.73;10.75;;;13.20;99.90;;;;;;5023839;28;20101;-70
2023/06/08 06:39:24;;;;;;;17.30;10.15;;;13.30;99.90;;;;;;5046468;28;20052;-70
2023/06/08 06:41:50;;;;;;;17.55;10.05;;;13.30;99.90;;;;;;5049053;28;20102;-70
2023/06/08 06:44:16;;;;;;;15.77;10.75;;;13.40;99.90;;;;;;5058536;28;20044;-71
2023/06/08 06:46:42;;;;;;;16.05;11.05;;;13.50;99.90;;;;;;5035407;28;20052;-71
2023/06/08 06:49:08;;;;;;;18.42;11.43;;;13.70;99.90;;;;;;5036168;28;20068;-71
2023/06/08 06:51:33;;;;;;;16.40;9.82;;;13.80;99.90;;;;;;5032592;28;20419;-71
2023/06/08 06:54:02;;;;;;;12.40;8.32;;;13.80;99.90;;;;;;5035823;28;20037;-73
2023/06/08 06:56:28;;;;;;;15.32;9.80;;;13.90;99.90;;;;;;5035113;28;20123;-73
2023/06/08 06:58:55;;;;;;;15.27;8.65;;;14.00;99.90;;;;;;5049859;28;20147;-73
2023/06/08 07:01:23;;;;;;;14.63;8.57;;;14.10;99.90;;;;;;5050309;28;20047;-73
2023/06/08 07:03:51;;;;;;;12.60;8.27;;;14.20;99.90;;;;;;5013985;28;20055;-75
2023/06/08 07:06:17;;;;;;;13.45;7.95;;;14.30;99.90;;;;;;5036932;28;20048;-75
2023/06/08 07:08:43;;;;;;;14.07;8.02;;;14.40;99.90;;;;;;5018251;28;20037;-75
2023/06/08 07:11:09;;;;;;;12.90;8.60;;;14.40;99.90;;;;;;5036294;28;20048;-73
2023/06/08 07:13:35;;;;;;;12.45;7.70;;;14.50;99.90;;;;;;5037450;28;20068;-72
2023/06/08 07:16:02;;;;;;;16.30;8.48;;;14.60;99.90;;;;;;5032692;28;20405;-73
2023/06/08 07:18:28;;;;;;;16.10;7.93;;;14.70;99.90;;;;;;5028233;28;20064;-72
2023/06/08 07:20:53;;;;;;;16.20;7.60;;;14.70;99.90;;;;;;5026871;28;20041;-72
2023/06/08 07:23:19;;;;;;;14.07;6.88;;;14.80;99.90;;;;;;5024435;28;20527;-75
2023/06/08 07:25:45;;;;;;;13.35;7.32;;;14.90;99.90;;;;;;5012526;28;20447;-74
2023/06/08 07:28:10;;;;;;;15.88;8.45;;;15.00;99.90;;;;;;5031465;28;20481;-74
2023/06/08 07:30:36;;;;;;;13.27;7.53;;;15.10;99.90;;;;;;5017370;28;20068;-74
2023/06/08 07:33:03;;;;;;;19.33;8.05;;;15.20;99.90;;;;;;5042571;28;20037;-74
2023/06/08 07:35:29;;;;;;;11.55;7.03;;;15.30;99.90;;;;;;5018938;28;20515;-74
2023/06/08 07:37:55;;;;;;;19.35;7.93;;;15.40;99.90;;;;;;5028236;28;20043;-74
2023/06/08 07:40:21;;;;;;;12.13;7.40;;;15.50;99.90;;;;;;5042795;28;20057;-74
2023/06/08 07:42:47;;;;;;;15.82;7.10;;;15.60;99.90;;;;;;5009141;28;20036;-72
2023/06/08 07:45:13;;;;;;;11.55;6.40;;;15.70;99.90;;;;;;5025424;28;20107;-73
2023/06/08 07:47:41;;;;;;;16.38;7.32;;;15.80;99.90;;;;;;5046917;28;20063;-73
2023/06/08 07:50:08;;;;;;;14.43;6.43;;;15.90;99.90;;;;;;5041237;28;20048;-73
2023/06/08 07:52:34;;;;;;;14.60;6.60;;;16.00;99.90;;;;;;5045645;28;20052;-73
2023/06/08 07:55:00;;;;;;;13.57;6.70;;;16.10;99.90;;;;;;5043360;28;20526;-73
2023/06/08 07:57:26;;;;;;;11.27;5.88;;;16.20;99.90;;;;;;5014814;28;20106;-73
2023/06/08 07:59:52;;;;;;;10.52;6.25;;;16.30;99.90;;;;;;5012083;28;20032;-73
2023/06/08 08:02:18;;;;;;;12.30;6.78;;;16.30;99.90;;;;;;5036370;28;20424;-73
2023/06/08 08:04:43;;;;;;;11.50;6.07;;;16.40;99.90;;;;;;5046122;28;20566;-73
2023/06/08 08:07:12;;;;;;;11.50;6.55;;;16.40;99.90;;;;;;5043574;28;20043;-74
2023/06/08 08:09:41;;;;;;;12.57;5.70;;;16.50;99.90;;;;;;5044641;28;20041;-75
2023/06/08 08:12:10;;;;;;;12.63;6.10;;;16.60;99.90;;;;;;5011453;28;20056;-74
2023/06/08 08:14:39;;;;;;;12.63;5.82;;;16.80;99.90;;;;;;5043165;28;20071;-73
2023/06/08 08:17:05;;;;;;;12.90;6.27;;;16.90;99.90;;;;;;5062405;28;20123;-74
2023/06/08 08:19:31;;;;;;;11.95;5.32;;;16.90;99.90;;;;;;5061147;28;20068;-73
2023/06/08 08:21:57;;;;;;;11.40;6.03;;;16.90;99.90;;;;;;5062815;28;20060;-74
2023/06/08 08:24:23;;;;;;;11.23;5.72;;;16.90;99.90;;;;;;5030520;28;20128;-73
2023/06/08 08:26:53;;;;;;;15.38;6.53;;;17.10;99.90;;;;;;5046823;28;20170;-73
2023/06/08 08:29:19;;;;;;;12.18;5.80;;;17.30;99.90;;;;;;5048045;28;20113;-73
2023/06/08 08:31:45;;;;;;;10.45;5.80;;;17.40;99.90;;;;;;5048620;28;20570;-73
2023/06/08 08:34:11;;;;;;;11.88;5.22;;;17.40;99.90;;;;;;5064813;28;20048;-73
2023/06/08 08:36:38;;;;;;;12.57;6.07;;;17.30;99.90;;;;;;5044764;28;20044;-73
2023/06/08 08:39:04;;;;;;;11.13;5.00;;;17.20;99.90;;;;;;5063425;28;20055;-74
2023/06/08 08:41:32;;;;;;;13.50;5.82;;;17.10;99.90;;;;;;5061642;28;20033;-73
2023/06/08 08:44:02;;;;;;;12.85;5.35;;;17.10;99.90;;;;;;5044836;28;20515;-74
2023/06/08 08:46:34;;;;;;;14.00;6.20;;;17.20;99.90;;;;;;5059895;28;20051;-73
2023/06/08 08:49:06;;;;;;;12.68;5.53;;;17.20;99.90;;;;;;5046151;28;20054;-73
2023/06/08 08:51:32;;;;;;;14.07;6.32;;;17.40;99.90;;;;;;5065887;28;20056;-73
2023/06/08 08:54:02;;;;;;;12.95;6.30;;;17.60;99.90;;;;;;5046830;28;20045;-74
2023/06/08 08:56:30;;;;;;;11.02;5.70;;;17.80;99.90;;;;;;5047344;28;20492;-73
2023/06/08 08:58:57;;;;;;;14.75;6.03;;;17.80;99.90;;;;;;5062507;28;20048;-74
2023/06/08 09:01:25;;;;;;;12.27;5.30;;;17.80;99.90;;;;;;5059146;28;20051;-73
2023/06/08 09:03:52;;;;;;;11.45;5.32;;;17.80;99.90;;;;;;5046317;28;20695;-73
2023/06/08 09:06:21;;;;;;;13.73;6.28;;;17.80;99.90;;;;;;5044575;28;20045;-73
2023/06/08 09:08:48;;;;;;;12.63;5.78;;;17.70;99.90;;;;;;5048849;28;20043;-73
2023/06/08 09:11:14;;;;;;;13.30;5.65;;;17.80;99.90;;;;;;5045276;28;20056;-74
2023/06/08 09:13:40;;;;;;;13.95;6.28;;;17.90;99.90;;;;;;5046266;28;20032;-73
2023/06/08 09:16:19;;;;;;;13.02;5.90;;;17.90;99.90;;;;;;5029659;28;20094;-73
2023/06/08 09:18:46;;;;;;;12.82;5.93;;;18.00;99.90;;;;;;5046836;28;20052;-73
2023/06/08 09:21:27;;;;;;;10.85;5.10;;;18.00;99.90;;;;;;5081189;28;20079;-73
2023/06/08 09:24:14;;;;;;;13.23;5.32;;;18.20;99.90;;;;;;5049183;28;20047;-73
2023/06/08 09:26:50;;;;;;;13.52;5.57;;;18.50;99.90;;;;;;5062466;28;20051;-73
2023/06/08 09:29:30;;;;;;;10.77;5.55;;;18.60;99.90;;;;;;5063086;28;20135;-74
2023/06/08 09:32:00;;;;;;;10.57;5.57;;;18.90;99.90;;;;;;5046870;28;20405;-73
2023/06/08 09:34:29;;;;;;;12.55;5.70;;;19.00;99.90;;;;;;5057197;28;20126;-73
2023/06/08 09:37:09;;;;;;;8.45;4.70;;;19.10;99.90;;;;;;5033213;28;20040;-73
2023/06/08 09:39:45;;;;;;;9.38;5.53;;;19.30;99.90;;;;;;5045370;28;20078;-73
2023/06/08 09:42:11;;;;;;;12.07;5.45;;;19.40;99.90;;;;;;5029322;28;20048;-73
2023/06/08 09:44:38;;;;;;;13.70;6.38;;;19.60;99.90;;;;;;5063285;28;20104;-73
2023/06/08 09:47:25;;;;;;;12.07;5.28;;;19.70;99.90;;;;;;5061905;28;20101;-74
2023/06/08 09:49:53;;;;;;;11.50;6.18;;;19.80;99.90;;;;;;5043234;28;20052;-74
2023/06/08 09:52:20;;;;;;;11.15;5.60;;;19.90;99.90;;;;;;5058835;28;20123;-73
2023/06/08 09:54:46;;;;;;;13.32;5.75;;;19.90;99.90;;;;;;5063895;28;20044;-74
2023/06/08 09:57:15;;;;;;;12.25;5.93;;;20.00;99.90;;;;;;5029547;28;20052;-73
2023/06/08 10:00:21;;;;;;;9.65;5.70;;;20.00;99.90;;;;;;5048033;28;20488;-73
2023/06/08 10:03:08;;;;;;;11.93;6.07;;;20.00;99.90;;;;;;5068118;28;20040;-75
2023/06/08 10:05:38;;;;;;;11.30;5.13;;;19.90;99.90;;;;;;5049057;28;20036;-74
2023/06/08 10:08:07;;;;;;;11.38;5.88;;;20.00;99.90;;;;;;5067840;28;20142;-73
2023/06/08 10:10:38;;;;;;;11.55;4.93;;;20.10;99.90;;;;;;5065994;28;20448;-73
2023/06/08 10:13:09;;;;;;;10.88;4.97;;;20.20;99.90;;;;;;5063403;28;20049;-73
2023/06/08 10:15:36;;;;;;;11.50;4.93;;;20.30;99.90;;;;;;5070021;28;20056;-73
2023/06/08 10:18:05;;;;;;;9.68;4.78;;;20.40;99.90;;;;;;5045992;28;20046;-73
2023/06/08 10:20:31;;;;;;;12.60;5.15;;;20.50;99.90;;;;;;5050562;28;20036;-74
2023/06/08 10:23:04;;;;;;;10.45;5.57;;;20.60;99.90;;;;;;5047111;28;20043;-73
2023/06/08 10:25:31;;;;;;;9.75;5.30;;;20.60;99.60;;;;;;5078720;28;20043;-74
2023/06/08 10:28:20;;;;;;;9.07;5.10;;;20.60;99.90;;;;;;5049255;28;20036;-71
2023/06/08 10:30:46;;;;;;;10.50;5.57;;;20.70;99.90;;;;;;5064751;28;20039;-72
2023/06/08 10:33:15;;;;;;;12.75;6.05;;;20.70;99.90;;;;;;5066313;28;20959;-71
2023/06/08 10:35:42;;;;;;;12.90;5.20;;;20.80;98.70;;;;;;5067356;28;20119;-72
2023/06/08 10:38:16;;;;;;;11.75;5.25;;;20.90;99.70;;;;;;5061514;28;20395;-72
2023/06/08 10:40:49;;;;;;;10.38;4.97;;;21.00;98.90;;;;;;5067467;28;20044;-70
2023/06/08 10:43:15;;;;;;;10.93;5.32;;;20.90;97.50;;;;;;5065902;28;20538;-71
2023/06/08 10:45:45;;;;;;;10.52;4.78;;;20.90;98.50;;;;;;5060738;28;20062;-71
2023/06/08 10:48:15;;;;;;;10.35;5.10;;;20.90;98.10;;;;;;5046070;28;20269;-71
2023/06/08 10:50:46;;;;;;;10.75;5.45;;;21.00;96.90;;;;;;5062311;28;20048;-72
2023/06/08 10:53:18;;;;;;;10.80;5.30;;;21.00;96.30;;;;;;5067466;28;20058;-71
2023/06/08 10:55:48;;;;;;;10.27;4.65;;;21.10;96.70;;;;;;5063580;28;20067;-73
2023/06/08 10:58:19;;;;;;;10.73;5.15;;;21.10;97.30;;;;;;5033926;28;20048;-72
2023/06/08 11:01:03;;;;;;;11.60;5.50;;;21.10;96.60;;;;;;5047959;28;20488;-72
2023/06/08 11:03:45;;;;;;;9.52;5.25;;;21.20;96.70;;;;;;5065586;28;20048;-72
2023/06/08 11:06:14;;;;;;;11.48;5.38;;;21.30;97.20;;;;;;5061478;28;20179;-73
2023/06/08 11:08:40;;;;;;;11.73;5.47;;;21.40;97.40;;;;;;5049837;28;20040;-72
2023/06/08 11:11:06;;;;;;;10.07;5.07;;;21.60;97.20;;;;;;5049280;28;20059;-72
2023/06/08 11:13:32;;;;;;;12.70;5.53;;;21.80;97.80;;;;;;5062299;28;20044;-72
2023/06/08 11:16:00;;;;;;;10.73;4.90;;;21.90;95.70;;;;;;5049203;28;20083;-72
2023/06/08 11:18:28;;;;;;;13.25;4.93;;;22.00;96.10;;;;;;5034516;28;20055;-72
2023/06/08 11:20:58;;;;;;;8.18;4.45;;;22.00;96.10;;;;;;5049467;28;20044;-73
2023/06/08 11:23:24;;;;;;;11.55;5.32;;;22.10;96.30;;;;;;5061542;28;20047;-73
2023/06/08 11:25:51;;;;;;;13.50;5.72;;;22.20;95.70;;;;;;5067285;28;20044;-74
2023/06/08 11:28:17;;;;;;;12.23;5.03;;;22.30;95.20;;;;;;5062253;28;20063;-74
2023/06/08 11:30:43;;;;;;;10.25;4.32;;;22.30;96.10;;;;;;5064020;28;20123;-73
2023/06/08 11:33:14;;;;;;;9.93;4.95;;;22.40;96.00;;;;;;5068608;28;20127;-73
2023/06/08 11:35:40;;;;;;;10.52;4.75;;;22.50;94.60;;;;;;5062771;28;20138;-72
2023/06/08 11:38:06;;;;;;;10.80;4.57;;;22.50;94.10;;;;;;5048600;28;20554;-72
2023/06/08 11:40:41;;;;;;;10.00;5.03;;;22.40;94.40;;;;;;5033672;28;20450;-73
2023/06/08 11:43:09;;;;;;;10.43;5.22;;;22.40;95.60;;;;;;5064305;28;20050;-72
2023/06/08 11:45:34;;;;;;;10.82;5.00;;;22.60;94.20;;;;;;5044392;28;20052;-72
2023/06/08 11:48:02;;;;;;;11.65;4.78;;;22.40;93.20;;;;;;5064534;28;20040;-72
2023/06/08 11:50:28;;;;;;;9.00;4.65;;;22.30;93.50;;;;;;5046899;28;20378;-73
2023/06/08 11:52:54;;;;;;;8.77;5.13;;;22.20;93.80;;;;;;5024696;28;20138;-72
2023/06/08 11:55:25;;;;;;;12.23;4.50;;;22.30;94.50;;;;;;5062789;28;20067;-73
2023/06/08 11:57:55;;;;;;;10.32;4.60;;;22.40;94.70;;;;;;5045513;28;20511;-72
2023/06/08 12:00:32;;;;;;;10.02;5.18;;;22.50;94.10;;;;;;5044239;28;20072;-72
2023/06/08 12:03:00;;;;;;;8.82;5.00;;;22.60;92.60;;;;;;5042319;28;20047;-73
2023/06/08 12:05:26;;;;;;;11.98;5.35;;;22.50;92.90;;;;;;5048521;28;20408;-73
2023/06/08 12:07:55;;;;;;;13.48;5.55;;;22.60;94.10;;;;;;5061501;28;20117;-72
2023/06/08 12:10:42;;;;;;;9.95;4.80;;;22.70;94.10;;;;;;5077839;28;20492;-72
2023/06/08 12:13:22;;;;;;;10.85;4.70;;;22.80;93.50;;;;;;5066151;28;20055;-72
2023/06/08 12:15:50;;;;;;;12.50;5.13;;;22.80;93.00;;;;;;5048264;28;20035;-72
2023/06/08 12:18:18;;;;;;;8.73;4.53;;;22.70;92.50;;;;;;5066958;28;20056;-72
2023/06/08 12:20:46;;;;;;;14.52;5.15;;;22.50;92.90;;;;;;5047669;28;20056;-72
2023/06/08 12:23:12;;;;;;;13.55;4.97;;;22.60;94.00;;;;;;5058427;28;20461;-72
2023/06/08 12:25:40;;;;;;;16.17;5.20;;;22.70;94.20;;;;;;5061321;28;20072;-72
2023/06/08 12:28:15;;;;;;;9.50;4.85;;;22.90;94.30;;;;;;5062845;28;20032;-72
2023/06/08 12:30:44;;;;;;;8.77;4.68;;;23.00;93.60;;;;;;5043575;28;20066;-72
2023/06/08 12:33:14;;;;;;;10.20;4.57;;;23.00;93.50;;;;;;5062672;28;20090;-72
2023/06/08 12:35:40;;;;;;;;;;;23.00;93.50;;;;;;5063826;28;20130;-72
2023/06/08 12:38:06;;;;;;;8.88;4.45;;;23.10;93.00;;;;;;5064126;28;19965;-73